sensor_id;sensor_type;location;lat;lon;timestamp;pressure;altitude;pressure_sealevel;temperature;humidity
18569;BME280;14780;48.316;-1.050;2023-04-22T00:00:44;97958.31;;;23.46;35.00
18569;BME280;14780;48.316;-1.050;2023-04-22T00:03:28;97958.31;;;23.46;34.98
18569;BME280;14780;48.316;-1.050;2023-04-22T00:06:13;97945.75;;;23.45;34.94
18569;BME280;14780;48.316;-1.050;2023-04-22T00:08:57;97956.69;;;23.45;34.91
18569;BME280;14780;48.316;-1.050;2023-04-22T00:11:42;97941.41;;;23.44;34.88
18569;BME280;14780;48.316;-1.050;2023-04-22T00:14:27;97926.16;;;23.43;34.85
18569;BME280;14780;48.316;-1.050;2023-04-22T00:17:11;97932.41;;;23.44;34.97
18569;BME280;14780;48.316;-1.050;2023-04-22T00:19:56;97932.19;;;23.40;34.93
18569;BME280;14780;48.316;-1.050;2023-04-22T00:22:40;97930.06;;;23.38;34.94
18569;BME280;14780;48.316;-1.050;2023-04-22T00:25:25;97921.03;;;23.37;34.89
18569;BME280;14780;48.316;-1.050;2023-04-22T00:28:10;97914.78;;;23.37;34.77
18569;BME280;14780;48.316;-1.050;2023-04-22T00:30:54;97915.91;;;23.36;34.87
18569;BME280;14780;48.316;-1.050;2023-04-22T00:33:39;97906.91;;;23.35;34.89
18569;BME280;14780;48.316;-1.050;2023-04-22T00:36:24;97906.09;;;23.35;34.86
18569;BME280;14780;48.316;-1.050;2023-04-22T00:39:09;97896.81;;;23.36;34.85
18569;BME280;14780;48.316;-1.050;2023-04-22T00:41:55;97896.81;;;23.36;34.85
18569;BME280;14780;48.316;-1.050;2023-04-22T00:44:40;97885.34;;;23.33;34.84
18569;BME280;14780;48.316;-1.050;2023-04-22T00:47:26;97881.81;;;23.33;34.90
18569;BME280;14780;48.316;-1.050;2023-04-22T00:50:11;97884.84;;;23.32;34.79
18569;BME280;14780;48.316;-1.050;2023-04-22T00:52:56;97888.19;;;23.29;34.78
18569;BME280;14780;48.316;-1.050;2023-04-22T00:55:41;97880.00;;;23.29;34.78
18569;BME280;14780;48.316;-1.050;2023-04-22T00:58:28;97874.81;;;23.27;34.87
18569;BME280;14780;48.316;-1.050;2023-04-22T01:01:13;97878.94;;;23.25;34.84
18569;BME280;14780;48.316;-1.050;2023-04-22T01:03:58;97869.06;;;23.29;34.81
18569;BME280;14780;48.316;-1.050;2023-04-22T01:06:45;97870.69;;;23.30;34.79
18569;BME280;14780;48.316;-1.050;2023-04-22T01:09:30;97867.06;;;23.34;34.69
18569;BME280;14780;48.316;-1.050;2023-04-22T01:12:15;97859.16;;;23.33;34.64
18569;BME280;14780;48.316;-1.050;2023-04-22T01:15:01;97859.16;;;23.33;34.71
18569;BME280;14780;48.316;-1.050;2023-04-22T01:17:46;97852.59;;;23.33;34.57
18569;BME280;14780;48.316;-1.050;2023-04-22T01:20:31;97860.78;;;23.33;34.63
18569;BME280;14780;48.316;-1.050;2023-04-22T01:23:22;97857.25;;;23.33;34.63
18569;BME280;14780;48.316;-1.050;2023-04-22T01:26:07;97843.41;;;23.30;34.64
18569;BME280;14780;48.316;-1.050;2023-04-22T01:28:52;97840.16;;;23.28;34.76
18569;BME280;14780;48.316;-1.050;2023-04-22T01:31:37;97830.03;;;23.28;34.69
18569;BME280;14780;48.316;-1.050;2023-04-22T01:34:23;97831.97;;;23.28;34.55
18569;BME280;14780;48.316;-1.050;2023-04-22T01:37:07;97829.25;;;23.28;34.59
18569;BME280;14780;48.316;-1.050;2023-04-22T01:39:52;97826.00;;;23.26;34.61
18569;BME280;14780;48.316;-1.050;2023-04-22T01:42:37;97827.94;;;23.25;34.64
18569;BME280;14780;48.316;-1.050;2023-04-22T01:45:22;97827.38;;;23.23;34.65
18569;BME280;14780;48.316;-1.050;2023-04-22T01:48:07;97821.66;;;23.25;34.64
18569;BME280;14780;48.316;-1.050;2023-04-22T01:50:51;97817.31;;;23.24;34.56
18569;BME280;14780;48.316;-1.050;2023-04-22T01:53:36;97816.47;;;23.23;34.55
18569;BME280;14780;48.316;-1.050;2023-04-22T01:56:21;97812.44;;;23.21;34.52
18569;BME280;14780;48.316;-1.050;2023-04-22T01:59:06;97810.50;;;23.21;34.52
18569;BME280;14780;48.316;-1.050;2023-04-22T02:01:51;97822.38;;;23.30;34.37
18569;BME280;14780;48.316;-1.050;2023-04-22T02:04:35;97834.53;;;23.38;34.17
18569;BME280;14780;48.316;-1.050;2023-04-22T02:07:20;97843.22;;;23.39;34.16
18569;BME280;14780;48.316;-1.050;2023-04-22T02:10:06;97853.84;;;23.41;34.15
18569;BME280;14780;48.316;-1.050;2023-04-22T02:12:51;97864.97;;;23.44;34.17
18569;BME280;14780;48.316;-1.050;2023-04-22T02:15:35;97857.63;;;23.45;34.12
18569;BME280;14780;48.316;-1.050;2023-04-22T02:18:21;97859.03;;;23.42;34.10
18569;BME280;14780;48.316;-1.050;2023-04-22T02:21:06;97860.13;;;23.42;34.04
18569;BME280;14780;48.316;-1.050;2023-04-22T02:23:50;97869.94;;;23.42;34.16
18569;BME280;14780;48.316;-1.050;2023-04-22T02:26:35;97870.72;;;23.43;34.18
18569;BME280;14780;48.316;-1.050;2023-04-22T02:29:19;97866.66;;;23.40;34.15
18569;BME280;14780;48.316;-1.050;2023-04-22T02:32:04;97869.56;;;23.31;34.27
18569;BME280;14780;48.316;-1.050;2023-04-22T02:34:50;97860.28;;;23.32;34.36
18569;BME280;14780;48.316;-1.050;2023-04-22T02:37:35;97850.47;;;23.31;34.37
18569;BME280;14780;48.316;-1.050;2023-04-22T02:40:22;97833.06;;;23.27;34.36
18569;BME280;14780;48.316;-1.050;2023-04-22T02:43:07;97828.72;;;23.26;34.35
18569;BME280;14780;48.316;-1.050;2023-04-22T02:45:52;97818.13;;;23.24;34.40
18569;BME280;14780;48.316;-1.050;2023-04-22T02:48:36;97822.25;;;23.22;34.45
18569;BME280;14780;48.316;-1.050;2023-04-22T02:51:21;97815.19;;;23.21;34.37
18569;BME280;14780;48.316;-1.050;2023-04-22T02:54:06;97815.97;;;23.21;34.32
18569;BME280;14780;48.316;-1.050;2023-04-22T02:56:51;97799.88;;;23.20;34.33
18569;BME280;14780;48.316;-1.050;2023-04-22T02:59:35;97802.63;;;23.20;34.36
18569;BME280;14780;48.316;-1.050;2023-04-22T03:02:21;97789.59;;;23.17;34.38
18569;BME280;14780;48.316;-1.050;2023-04-22T03:05:05;97806.47;;;23.19;34.40
18569;BME280;14780;48.316;-1.050;2023-04-22T03:07:50;97802.13;;;23.18;34.35
18569;BME280;14780;48.316;-1.050;2023-04-22T03:10:35;97795.53;;;23.19;34.37
18569;BME280;14780;48.316;-1.050;2023-04-22T03:13:20;97793.63;;;23.19;34.32
18569;BME280;14780;48.316;-1.050;2023-04-22T03:16:05;97792.81;;;23.19;34.37
18569;BME280;14780;48.316;-1.050;2023-04-22T03:18:51;97787.34;;;23.19;34.35
18569;BME280;14780;48.316;-1.050;2023-04-22T03:21:36;97801.31;;;23.17;34.37
18569;BME280;14780;48.316;-1.050;2023-04-22T03:24:20;97794.25;;;23.16;34.24
18569;BME280;14780;48.316;-1.050;2023-04-22T03:27:05;97786.31;;;23.15;34.33
18569;BME280;14780;48.316;-1.050;2023-04-22T03:29:50;97786.31;;;23.15;34.35
18569;BME280;14780;48.316;-1.050;2023-04-22T03:32:34;97785.00;;;23.12;34.36
18569;BME280;14780;48.316;-1.050;2023-04-22T03:35:20;97789.34;;;23.13;34.30
18569;BME280;14780;48.316;-1.050;2023-04-22T03:38:05;97792.88;;;23.14;34.26
18569;BME280;14780;48.316;-1.050;2023-04-22T03:40:49;97799.97;;;23.15;34.24
18569;BME280;14780;48.316;-1.050;2023-04-22T03:43:34;97799.97;;;23.15;34.23
18569;BME280;14780;48.316;-1.050;2023-04-22T03:46:19;97809.56;;;23.12;34.17
18569;BME280;14780;48.316;-1.050;2023-04-22T03:49:04;97804.91;;;23.13;34.26
18569;BME280;14780;48.316;-1.050;2023-04-22T03:51:49;97806.00;;;23.12;34.27
18569;BME280;14780;48.316;-1.050;2023-04-22T03:54:34;97805.19;;;23.11;34.18
18569;BME280;14780;48.316;-1.050;2023-04-22T03:57:18;97814.19;;;23.12;34.28
18569;BME280;14780;48.316;-1.050;2023-04-22T04:00:03;97802.75;;;23.10;34.26
18569;BME280;14780;48.316;-1.050;2023-04-22T04:02:48;97804.69;;;23.09;34.27
18569;BME280;14780;48.316;-1.050;2023-04-22T04:05:33;97804.09;;;23.12;34.21
18569;BME280;14780;48.316;-1.050;2023-04-22T04:08:18;97803.28;;;23.12;34.21
18569;BME280;14780;48.316;-1.050;2023-04-22T04:11:02;97796.41;;;23.14;34.18
18569;BME280;14780;48.316;-1.050;2023-04-22T04:13:47;97795.91;;;23.12;34.21
18569;BME280;14780;48.316;-1.050;2023-04-22T04:16:32;97801.38;;;23.12;34.19
18569;BME280;14780;48.316;-1.050;2023-04-22T04:19:17;97804.91;;;23.13;34.14
18569;BME280;14780;48.316;-1.050;2023-04-22T04:22:02;97802.47;;;23.11;34.13
18569;BME280;14780;48.316;-1.050;2023-04-22T04:24:46;97809.03;;;23.10;34.19
18569;BME280;14780;48.316;-1.050;2023-04-22T04:27:31;97806.00;;;23.12;34.19
18569;BME280;14780;48.316;-1.050;2023-04-22T04:30:16;97808.72;;;23.12;34.15
18569;BME280;14780;48.316;-1.050;2023-04-22T04:33:02;97817.44;;;23.14;34.20
18569;BME280;14780;48.316;-1.050;2023-04-22T04:35:50;97809.56;;;23.12;34.15
18569;BME280;14780;48.316;-1.050;2023-04-22T04:38:35;97812.28;;;23.12;34.19
18569;BME280;14780;48.316;-1.050;2023-04-22T04:41:21;97808.72;;;23.12;34.27
18569;BME280;14780;48.316;-1.050;2023-04-22T04:44:06;97823.47;;;23.11;34.19
18569;BME280;14780;48.316;-1.050;2023-04-22T04:46:51;97832.78;;;23.10;34.19
18569;BME280;14780;48.316;-1.050;2023-04-22T04:49:38;97821.06;;;23.09;34.25
18569;BME280;14780;48.316;-1.050;2023-04-22T04:52:23;97825.19;;;23.07;34.24
18569;BME280;14780;48.316;-1.050;2023-04-22T04:55:08;97825.69;;;23.09;34.20
18569;BME280;14780;48.316;-1.050;2023-04-22T04:57:52;97818.63;;;23.08;34.31
18569;BME280;14780;48.316;-1.050;2023-04-22T05:00:37;97820.25;;;23.09;34.24
18569;BME280;14780;48.316;-1.050;2023-04-22T05:03:22;97803.59;;;23.10;34.27
18569;BME280;14780;48.316;-1.050;2023-04-22T05:06:07;97793.78;;;23.09;34.28
18569;BME280;14780;48.316;-1.050;2023-04-22T05:08:52;97802.25;;;23.08;34.21
18569;BME280;14780;48.316;-1.050;2023-04-22T05:11:36;97790.31;;;23.04;34.33
18569;BME280;14780;48.316;-1.050;2023-04-22T05:14:21;97797.16;;;23.01;34.36
18569;BME280;14780;48.316;-1.050;2023-04-22T05:17:06;97793.66;;;23.01;34.35
18569;BME280;14780;48.316;-1.050;2023-04-22T05:19:51;97788.75;;;22.98;34.49
18569;BME280;14780;48.316;-1.050;2023-04-22T05:22:36;97786.84;;;22.98;34.37
18569;BME280;14780;48.316;-1.050;2023-04-22T05:25:20;97794.75;;;23.00;34.33
18569;BME280;14780;48.316;-1.050;2023-04-22T05:28:05;97791.50;;;22.98;34.34
18569;BME280;14780;48.316;-1.050;2023-04-22T05:30:50;97794.22;;;22.98;34.35
18569;BME280;14780;48.316;-1.050;2023-04-22T05:33:35;97799.69;;;22.98;34.32
18569;BME280;14780;48.316;-1.050;2023-04-22T05:36:19;97800.78;;;22.97;34.32
18569;BME280;14780;48.316;-1.050;2023-04-22T05:39:04;97803.50;;;22.97;34.33
18569;BME280;14780;48.316;-1.050;2023-04-22T05:41:49;97795.66;;;22.95;34.36
18569;BME280;14780;48.316;-1.050;2023-04-22T05:44:34;97798.66;;;22.94;34.33
18569;BME280;14780;48.316;-1.050;2023-04-22T05:47:18;97807.63;;;22.94;34.34
18569;BME280;14780;48.316;-1.050;2023-04-22T05:50:03;97818.25;;;22.96;34.29
18569;BME280;14780;48.316;-1.050;2023-04-22T05:52:48;97814.75;;;22.95;34.36
18569;BME280;14780;48.316;-1.050;2023-04-22T05:55:33;97827.28;;;22.96;34.26
18569;BME280;14780;48.316;-1.050;2023-04-22T05:58:18;97832.72;;;22.96;34.28
18569;BME280;14780;48.316;-1.050;2023-04-22T06:01:02;97830.78;;;22.97;34.33
18569;BME280;14780;48.316;-1.050;2023-04-22T06:03:47;97837.34;;;22.96;34.33
18569;BME280;14780;48.316;-1.050;2023-04-22T06:06:32;97841.19;;;22.95;34.36
18569;BME280;14780;48.316;-1.050;2023-04-22T06:09:16;97843.31;;;22.98;34.37
18569;BME280;14780;48.316;-1.050;2023-04-22T06:12:01;97839.41;;;23.04;34.28
18569;BME280;14780;48.316;-1.050;2023-04-22T06:14:46;97849.38;;;23.13;34.09
18569;BME280;14780;48.316;-1.050;2023-04-22T06:17:33;97852.63;;;23.15;33.96
18569;BME280;14780;48.316;-1.050;2023-04-22T06:20:19;97858.63;;;23.17;34.02
18569;BME280;14780;48.316;-1.050;2023-04-22T06:23:03;97862.13;;;23.18;33.98
18569;BME280;14780;48.316;-1.050;2023-04-22T06:25:48;97869.00;;;23.15;34.13
18569;BME280;14780;48.316;-1.050;2023-04-22T06:28:34;97872.25;;;23.17;34.17
18569;BME280;14780;48.316;-1.050;2023-04-22T06:31:18;97870.84;;;23.20;34.02
18569;BME280;14780;48.316;-1.050;2023-04-22T06:34:03;97876.28;;;23.20;34.09
18569;BME280;14780;48.316;-1.050;2023-04-22T06:36:48;97882.78;;;23.24;34.06
18569;BME280;14780;48.316;-1.050;2023-04-22T06:39:34;97882.50;;;23.25;34.07
18569;BME280;14780;48.316;-1.050;2023-04-22T06:42:19;97883.91;;;23.23;34.07
18569;BME280;14780;48.316;-1.050;2023-04-22T06:45:04;97888.25;;;23.24;34.15
18569;BME280;14780;48.316;-1.050;2023-04-22T06:47:51;97884.13;;;23.26;34.15
18569;BME280;14780;48.316;-1.050;2023-04-22T06:50:39;97874.31;;;23.25;34.10
18569;BME280;14780;48.316;-1.050;2023-04-22T06:53:24;97870.75;;;23.25;34.13
18569;BME280;14780;48.316;-1.050;2023-04-22T06:56:09;97878.16;;;23.24;34.20
18569;BME280;14780;48.316;-1.050;2023-04-22T06:58:54;97889.06;;;23.24;34.28
18569;BME280;14780;48.316;-1.050;2023-04-22T07:01:39;97892.03;;;23.28;34.28
18569;BME280;14780;48.316;-1.050;2023-04-22T07:04:24;97886.56;;;23.28;34.23
18569;BME280;14780;48.316;-1.050;2023-04-22T07:07:11;97889.28;;;23.28;34.31
18569;BME280;14780;48.316;-1.050;2023-04-22T07:09:56;97897.97;;;23.30;34.20
18569;BME280;14780;48.316;-1.050;2023-04-22T07:12:41;97902.94;;;23.28;34.31
18569;BME280;14780;48.316;-1.050;2023-04-22T07:15:26;97901.00;;;23.28;34.36
18569;BME280;14780;48.316;-1.050;2023-04-22T07:18:11;97904.44;;;23.33;34.22
18569;BME280;14780;48.316;-1.050;2023-04-22T07:20:56;97903.16;;;23.31;34.29
18569;BME280;14780;48.316;-1.050;2023-04-22T07:23:41;97912.34;;;23.35;34.34
18569;BME280;14780;48.316;-1.050;2023-04-22T07:26:26;97899.00;;;23.33;34.27
18569;BME280;14780;48.316;-1.050;2023-04-22T07:29:11;97906.91;;;23.35;34.32
18569;BME280;14780;48.316;-1.050;2023-04-22T07:31:56;97904.44;;;23.33;34.25
18569;BME280;14780;48.316;-1.050;2023-04-22T07:34:41;97913.19;;;23.36;34.26
18569;BME280;14780;48.316;-1.050;2023-04-22T07:37:26;97922.69;;;23.38;34.30
18569;BME280;14780;48.316;-1.050;2023-04-22T07:40:11;97928.94;;;23.38;34.39
18569;BME280;14780;48.316;-1.050;2023-04-22T07:42:57;97924.88;;;23.36;34.54
18569;BME280;14780;48.316;-1.050;2023-04-22T07:45:42;97928.16;;;23.38;34.48
18569;BME280;14780;48.316;-1.050;2023-04-22T07:48:26;97927.84;;;23.39;34.46
18569;BME280;14780;48.316;-1.050;2023-04-22T07:51:11;97933.28;;;23.39;34.45
18569;BME280;14780;48.316;-1.050;2023-04-22T07:53:56;97931.69;;;23.38;34.66
18569;BME280;14780;48.316;-1.050;2023-04-22T07:56:41;97937.28;;;23.47;34.45
18569;BME280;14780;48.316;-1.050;2023-04-22T07:59:26;97936.69;;;23.50;34.54
18569;BME280;14780;48.316;-1.050;2023-04-22T08:02:11;97944.59;;;23.51;34.47
18569;BME280;14780;48.316;-1.050;2023-04-22T08:04:55;97947.03;;;23.53;34.48
18569;BME280;14780;48.316;-1.050;2023-04-22T08:07:40;97946.19;;;23.52;34.56
18569;BME280;14780;48.316;-1.050;2023-04-22T08:10:25;97944.59;;;23.51;34.64
18569;BME280;14780;48.316;-1.050;2023-04-22T08:13:10;97950.03;;;23.51;34.72
18569;BME280;14780;48.316;-1.050;2023-04-22T08:15:54;97950.03;;;23.51;34.63
18569;BME280;14780;48.316;-1.050;2023-04-22T08:18:40;97951.94;;;23.51;34.72
18569;BME280;14780;48.316;-1.050;2023-04-22T08:21:24;97947.81;;;23.53;34.74
18569;BME280;14780;48.316;-1.050;2023-04-22T08:24:10;97955.22;;;23.53;34.80
18569;BME280;14780;48.316;-1.050;2023-04-22T08:26:56;97946.69;;;23.54;34.80
18569;BME280;14780;48.316;-1.050;2023-04-22T08:29:41;97958.16;;;23.56;34.75
18569;BME280;14780;48.316;-1.050;2023-04-22T08:32:26;97957.56;;;23.59;34.78
18569;BME280;14780;48.316;-1.050;2023-04-22T08:35:11;97960.00;;;23.61;34.75
18569;BME280;14780;48.316;-1.050;2023-04-22T08:37:56;97959.16;;;23.60;34.88
18569;BME280;14780;48.316;-1.050;2023-04-22T08:40:41;97967.66;;;23.59;34.84
18569;BME280;14780;48.316;-1.050;2023-04-22T08:43:26;97965.47;;;23.61;34.98
18569;BME280;14780;48.316;-1.050;2023-04-22T08:46:11;97969.75;;;23.67;34.81
18569;BME280;14780;48.316;-1.050;2023-04-22T08:48:57;97979.22;;;23.69;34.77
18569;BME280;14780;48.316;-1.050;2023-04-22T08:51:46;97977.81;;;23.72;34.82
18569;BME280;14780;48.316;-1.050;2023-04-22T08:54:32;97972.38;;;23.72;34.77
18569;BME280;14780;48.316;-1.050;2023-04-22T08:57:18;97978.66;;;23.72;34.92
18569;BME280;14780;48.316;-1.050;2023-04-22T09:00:03;97971.78;;;23.75;34.93
18569;BME280;14780;48.316;-1.050;2023-04-22T09:02:49;97988.97;;;23.75;34.83
18569;BME280;14780;48.316;-1.050;2023-04-22T09:05:37;97986.03;;;23.72;35.04
18569;BME280;14780;48.316;-1.050;2023-04-22T09:08:23;97977.47;;;23.78;34.81
18569;BME280;14780;48.316;-1.050;2023-04-22T09:11:08;97978.88;;;23.76;35.00
18569;BME280;14780;48.316;-1.050;2023-04-22T09:13:54;97981.59;;;23.76;34.96
18569;BME280;14780;48.316;-1.050;2023-04-22T09:16:46;97983.94;;;23.82;34.84
18569;BME280;14780;48.316;-1.050;2023-04-22T09:19:31;97983.94;;;23.82;34.83
18569;BME280;14780;48.316;-1.050;2023-04-22T09:22:16;97984.75;;;23.83;34.94
18569;BME280;14780;48.316;-1.050;2023-04-22T09:25:03;97992.66;;;23.84;34.93
18569;BME280;14780;48.316;-1.050;2023-04-22T09:30:35;97995.31;;;23.89;34.89
18569;BME280;14780;48.316;-1.050;2023-04-22T09:33:21;97996.38;;;23.93;34.78
18569;BME280;14780;48.316;-1.050;2023-04-22T09:36:09;98003.44;;;23.94;34.75
18569;BME280;14780;48.316;-1.050;2023-04-22T09:38:56;98001.22;;;23.96;34.72
18569;BME280;14780;48.316;-1.050;2023-04-22T09:41:41;98004.16;;;24.00;34.79
18569;BME280;14780;48.316;-1.050;2023-04-22T09:44:27;98007.13;;;24.03;34.85
18569;BME280;14780;48.316;-1.050;2023-04-22T09:47:12;98003.28;;;24.04;34.92
18569;BME280;14780;48.316;-1.050;2023-04-22T09:50:03;98014.13;;;24.09;34.86
18569;BME280;14780;48.316;-1.050;2023-04-22T09:53:03;98004.53;;;24.12;34.89
18569;BME280;14780;48.316;-1.050;2023-04-22T09:55:50;98020.69;;;24.08;34.81
18569;BME280;14780;48.316;-1.050;2023-04-22T09:58:39;98022.31;;;24.09;34.99
18569;BME280;14780;48.316;-1.050;2023-04-22T10:01:37;98015.16;;;24.13;34.89
18569;BME280;14780;48.316;-1.050;2023-04-22T10:04:24;98028.81;;;24.13;34.88
18569;BME280;14780;48.316;-1.050;2023-04-22T10:07:09;98020.31;;;24.15;34.93
18569;BME280;14780;48.316;-1.050;2023-04-22T10:09:54;98022.25;;;24.14;34.83
18569;BME280;14780;48.316;-1.050;2023-04-22T10:12:38;98029.63;;;24.14;34.91
18569;BME280;14780;48.316;-1.050;2023-04-22T10:15:24;98034.88;;;24.10;34.88
18569;BME280;14780;48.316;-1.050;2023-04-22T10:18:12;98032.75;;;24.07;34.87
18569;BME280;14780;48.316;-1.050;2023-04-22T10:20:58;98029.81;;;24.04;34.86
18569;BME280;14780;48.316;-1.050;2023-04-22T10:23:47;98031.50;;;24.00;34.93
18569;BME280;14780;48.316;-1.050;2023-04-22T10:29:25;98035.25;;;24.04;34.89
18569;BME280;14780;48.316;-1.050;2023-04-22T10:35:10;98035.56;;;24.02;34.83
18569;BME280;14780;48.316;-1.050;2023-04-22T10:37:56;98033.44;;;23.99;34.84
18569;BME280;14780;48.316;-1.050;2023-04-22T10:40:58;98038.28;;;24.02;34.78
18569;BME280;14780;48.316;-1.050;2023-04-22T10:43:50;98037.78;;;24.00;34.90
18569;BME280;14780;48.316;-1.050;2023-04-22T10:49:38;98038.91;;;23.99;34.83
18569;BME280;14780;48.316;-1.050;2023-04-22T10:52:29;98037.25;;;23.98;34.78
18569;BME280;14780;48.316;-1.050;2023-04-22T10:55:15;98036.66;;;24.01;34.76
18569;BME280;14780;48.316;-1.050;2023-04-22T10:58:00;98042.63;;;24.03;34.72
18569;BME280;14780;48.316;-1.050;2023-04-22T11:00:45;98047.81;;;24.05;34.87
18569;BME280;14780;48.316;-1.050;2023-04-22T11:03:31;98042.56;;;24.08;34.68
18569;BME280;14780;48.316;-1.050;2023-04-22T11:06:18;98049.66;;;24.09;34.72
18569;BME280;14780;48.316;-1.050;2023-04-22T11:09:08;98052.31;;;24.14;34.64
18569;BME280;14780;48.316;-1.050;2023-04-22T11:11:53;98045.22;;;24.13;34.79
18569;BME280;14780;48.316;-1.050;2023-04-22T11:14:58;98047.63;;;24.15;34.74
18569;BME280;14780;48.316;-1.050;2023-04-22T11:17:45;98053.09;;;24.15;34.71
18569;BME280;14780;48.316;-1.050;2023-04-22T11:20:31;98057.78;;;24.14;34.68
18569;BME280;14780;48.316;-1.050;2023-04-22T11:23:25;98052.81;;;24.16;34.63
18569;BME280;14780;48.316;-1.050;2023-04-22T11:26:10;98052.81;;;24.16;34.78
18569;BME280;14780;48.316;-1.050;2023-04-22T11:28:59;98046.22;;;24.17;34.80
18569;BME280;14780;48.316;-1.050;2023-04-22T11:31:48;98057.16;;;24.17;34.70
18569;BME280;14780;48.316;-1.050;2023-04-22T11:34:32;98053.31;;;24.18;34.81
18569;BME280;14780;48.316;-1.050;2023-04-22T11:37:21;98051.13;;;24.20;34.70
18569;BME280;14780;48.316;-1.050;2023-04-22T11:40:08;98054.34;;;24.22;34.83
18569;BME280;14780;48.316;-1.050;2023-04-22T11:42:54;98057.09;;;24.22;34.79
18569;BME280;14780;48.316;-1.050;2023-04-22T11:45:40;98059.22;;;24.25;34.70
18569;BME280;14780;48.316;-1.050;2023-04-22T11:48:25;98054.25;;;24.27;34.70
18569;BME280;14780;48.316;-1.050;2023-04-22T11:51:10;98052.56;;;24.31;34.83
18569;BME280;14780;48.316;-1.050;2023-04-22T11:53:56;98066.72;;;24.33;34.80
18569;BME280;14780;48.316;-1.050;2023-04-22T11:56:41;98067.75;;;24.37;34.73
18569;BME280;14780;48.316;-1.050;2023-04-22T11:59:26;98067.25;;;24.35;34.77
18569;BME280;14780;48.316;-1.050;2023-04-22T12:02:12;98070.78;;;24.36;34.76
18569;BME280;14780;48.316;-1.050;2023-04-22T12:04:58;98063.31;;;24.41;34.56
18569;BME280;14780;48.316;-1.050;2023-04-22T12:07:43;98058.88;;;24.45;34.59
18569;BME280;14780;48.316;-1.050;2023-04-22T12:10:28;98064.34;;;24.45;34.64
18569;BME280;14780;48.316;-1.050;2023-04-22T12:13:39;98061.44;;;24.55;34.49
18569;BME280;14780;48.316;-1.050;2023-04-22T12:16:24;98055.97;;;24.55;34.51
18569;BME280;14780;48.316;-1.050;2023-04-22T12:19:09;98056.50;;;24.57;34.58
18569;BME280;14780;48.316;-1.050;2023-04-22T12:21:55;98065.22;;;24.59;34.58
18569;BME280;14780;48.316;-1.050;2023-04-22T12:24:44;98062.97;;;24.61;34.47
18569;BME280;14780;48.316;-1.050;2023-04-22T12:27:30;98067.66;;;24.61;34.50
18569;BME280;14780;48.316;-1.050;2023-04-22T12:30:15;98076.94;;;24.60;34.46
18569;BME280;14780;48.316;-1.050;2023-04-22T12:33:00;98069.84;;;24.59;34.45
18569;BME280;14780;48.316;-1.050;2023-04-22T12:35:45;98082.50;;;24.55;34.44
18569;BME280;14780;48.316;-1.050;2023-04-22T12:38:32;98068.59;;;24.51;34.48
18569;BME280;14780;48.316;-1.050;2023-04-22T12:41:17;98081.78;;;24.49;34.52
18569;BME280;14780;48.316;-1.050;2023-04-22T12:44:03;98079.63;;;24.46;34.51
18569;BME280;14780;48.316;-1.050;2023-04-22T12:46:47;98074.78;;;24.43;34.55
18569;BME280;14780;48.316;-1.050;2023-04-22T12:49:32;98078.28;;;24.44;34.41
18569;BME280;14780;48.316;-1.050;2023-04-22T12:52:16;98079.41;;;24.43;34.61
18569;BME280;14780;48.316;-1.050;2023-04-22T12:55:02;98081.84;;;24.44;34.59
18569;BME280;14780;48.316;-1.050;2023-04-22T12:57:48;98094.13;;;24.47;34.52
18569;BME280;14780;48.316;-1.050;2023-04-22T13:00:36;98091.38;;;24.47;34.39
18569;BME280;14780;48.316;-1.050;2023-04-22T13:03:21;98091.69;;;24.45;34.55
18569;BME280;14780;48.316;-1.050;2023-04-22T13:06:06;98092.72;;;24.49;34.61
18569;BME280;14780;48.316;-1.050;2023-04-22T13:08:51;98095.75;;;24.48;34.40
18569;BME280;14780;48.316;-1.050;2023-04-22T13:11:36;98092.19;;;24.47;34.50
18569;BME280;14780;48.316;-1.050;2023-04-22T13:14:21;98101.72;;;24.50;34.54
18569;BME280;14780;48.316;-1.050;2023-04-22T13:17:06;98101.44;;;24.51;34.42
18569;BME280;14780;48.316;-1.050;2023-04-22T13:19:50;98103.34;;;24.51;34.51
18569;BME280;14780;48.316;-1.050;2023-04-22T13:22:35;98105.28;;;24.50;34.52
18569;BME280;14780;48.316;-1.050;2023-04-22T13:25:20;98105.28;;;24.50;34.36
18569;BME280;14780;48.316;-1.050;2023-04-22T13:28:05;98108.00;;;24.50;34.44
18569;BME280;14780;48.316;-1.050;2023-04-22T13:30:50;98109.69;;;24.46;34.48
18569;BME280;14780;48.316;-1.050;2023-04-22T13:33:35;98113.75;;;24.49;34.39
18569;BME280;14780;48.316;-1.050;2023-04-22T13:36:20;98105.28;;;24.50;34.52
18569;BME280;14780;48.316;-1.050;2023-04-22T13:39:04;98104.16;;;24.51;34.48
18569;BME280;14780;48.316;-1.050;2023-04-22T13:41:50;98103.88;;;24.53;34.47
18569;BME280;14780;48.316;-1.050;2023-04-22T13:44:35;98103.03;;;24.52;34.51
18569;BME280;14780;48.316;-1.050;2023-04-22T13:47:20;98095.13;;;24.51;34.55
18569;BME280;14780;48.316;-1.050;2023-04-22T13:50:06;98098.97;;;24.50;34.50
18569;BME280;14780;48.316;-1.050;2023-04-22T13:52:51;98096.75;;;24.52;34.54
18569;BME280;14780;48.316;-1.050;2023-04-22T13:55:37;98097.06;;;24.50;34.49
18569;BME280;14780;48.316;-1.050;2023-04-22T13:58:21;98103.13;;;24.47;34.45
18569;BME280;14780;48.316;-1.050;2023-04-22T14:01:07;98092.50;;;24.46;34.50
18569;BME280;14780;48.316;-1.050;2023-04-22T14:03:52;98098.75;;;24.46;34.48
18569;BME280;14780;48.316;-1.050;2023-04-22T14:06:38;98100.16;;;24.44;34.57
18569;BME280;14780;48.316;-1.050;2023-04-22T14:09:22;98092.88;;;24.39;34.57
18569;BME280;14780;48.316;-1.050;2023-04-22T14:12:07;98099.44;;;24.38;34.62
18569;BME280;14780;48.316;-1.050;2023-04-22T14:14:52;98097.75;;;24.42;34.40
18569;BME280;14780;48.316;-1.050;2023-04-22T14:17:37;98095.03;;;24.42;34.37
18569;BME280;14780;48.316;-1.050;2023-04-22T14:20:23;98104.31;;;24.41;34.48
18569;BME280;14780;48.316;-1.050;2023-04-22T14:23:11;98097.22;;;24.40;34.44
18569;BME280;14780;48.316;-1.050;2023-04-22T14:25:56;98103.00;;;24.39;34.37
18569;BME280;14780;48.316;-1.050;2023-04-22T14:28:41;98099.75;;;24.37;34.37
18569;BME280;14780;48.316;-1.050;2023-04-22T14:31:26;98101.16;;;24.34;34.44
18569;BME280;14780;48.316;-1.050;2023-04-22T14:34:10;98098.72;;;24.33;34.37
18569;BME280;14780;48.316;-1.050;2023-04-22T14:36:55;98094.16;;;24.28;34.40